地図

経路データ

SID SEASON NUMBER BASIN SUBBASIN NAME ISO_TIME NATURE LAT LON WMO_WIND WMO_PRES WMO_AGENCY TRACK_TYPE DIST2LAND LANDFALL IFLAG USA_AGENCY USA_ATCF_ID USA_LAT USA_LON USA_RECORD USA_STATUS USA_WIND USA_PRES USA_SSHS USA_R34_NE USA_R34_SE USA_R34_SW USA_R34_NW USA_R50_NE USA_R50_SE USA_R50_SW USA_R50_NW USA_R64_NE USA_R64_SE USA_R64_SW USA_R64_NW USA_POCI USA_ROCI USA_RMW USA_EYE TOKYO_LAT TOKYO_LON TOKYO_GRADE TOKYO_WIND TOKYO_PRES TOKYO_R50_DIR TOKYO_R50_LONG TOKYO_R50_SHORT TOKYO_R30_DIR TOKYO_R30_LONG TOKYO_R30_SHORT TOKYO_LAND CMA_LAT CMA_LON CMA_CAT CMA_WIND CMA_PRES HKO_LAT HKO_LON HKO_CAT HKO_WIND HKO_PRES NEWDELHI_LAT NEWDELHI_LON NEWDELHI_GRADE NEWDELHI_WIND NEWDELHI_PRES NEWDELHI_CI NEWDELHI_DP NEWDELHI_POCI REUNION_LAT REUNION_LON REUNION_TYPE REUNION_WIND REUNION_PRES REUNION_TNUM REUNION_CI REUNION_RMW REUNION_R34_NE REUNION_R34_SE REUNION_R34_SW REUNION_R34_NW REUNION_R50_NE REUNION_R50_SE REUNION_R50_SW REUNION_R50_NW REUNION_R64_NE REUNION_R64_SE REUNION_R64_SW REUNION_R64_NW BOM_LAT BOM_LON BOM_TYPE BOM_WIND BOM_PRES BOM_TNUM BOM_CI BOM_RMW BOM_R34_NE BOM_R34_SE BOM_R34_SW BOM_R34_NW BOM_R50_NE BOM_R50_SE BOM_R50_SW BOM_R50_NW BOM_R64_NE BOM_R64_SE BOM_R64_SW BOM_R64_NW BOM_ROCI BOM_POCI BOM_EYE BOM_POS_METHOD BOM_PRES_METHOD NADI_LAT NADI_LON NADI_CAT NADI_WIND NADI_PRES WELLINGTON_LAT WELLINGTON_LON WELLINGTON_WIND WELLINGTON_PRES DS824_LAT DS824_LON DS824_STAGE DS824_WIND DS824_PRES TD9636_LAT TD9636_LON TD9636_STAGE TD9636_WIND TD9636_PRES TD9635_LAT TD9635_LON TD9635_WIND TD9635_PRES TD9635_ROCI NEUMANN_LAT NEUMANN_LON NEUMANN_CLASS NEUMANN_WIND NEUMANN_PRES MLC_LAT MLC_LON MLC_CLASS MLC_WIND MLC_PRES USA_GUST BOM_GUST BOM_GUST_PER REUNION_GUST REUNION_GUST_PER USA_SEAHGT USA_SEARAD_NE USA_SEARAD_SE USA_SEARAD_SW USA_SEARAD_NW STORM_SPEED STORM_DIR
1974231N25142 1974 81 WP MM NOT_NAMED 1974-08-19 00:00:00 TS 25.2000 141.800 main 1083 1060 __O___________ -1 25.2000 141.800 0 19 1005 7 35
1974231N25142 1974 81 WP MM NOT_NAMED 1974-08-19 03:00:00 TS 25.4676 142.010 main 1060 1034 __P___________ -1 25.4676 142.010 0 21 1004 7 31
1974231N25142 1974 81 WP MM NOT_NAMED 1974-08-19 06:00:00 TS 25.8000 142.200 main 1034 995 __O___________ -1 25.8000 142.200 1 23 1003 8 21
1974231N25142 1974 81 WP MM NOT_NAMED 1974-08-19 09:00:00 TS 26.2350 142.345 main 995 945 __P___________ -1 26.2350 142.345 1 23 1003 9 11
1974231N25142 1974 81 WP MM NOT_NAMED 1974-08-19 12:00:00 TS 26.7000 142.400 main 945 902 __O___________ -1 26.7000 142.400 1 23 1003 9 2
1974231N25142 1974 81 WP MM NOT_NAMED 1974-08-19 15:00:00 TS 27.1149 142.360 main 902 853 __P___________ -1 27.1149 142.360 1 23 1001 8 347
1974231N25142 1974 81 WP MM NOT_NAMED 1974-08-19 18:00:00 TS 27.5000 142.200 main 853 813 __O___________ -1 27.5000 142.200 1 23 1000 8 330
1974231N25142 1974 81 WP MM NOT_NAMED 1974-08-19 21:00:00 TS 27.8428 141.878 main 813 761 __P___________ -1 27.8428 141.878 1 23 1000 9 323
1974231N25142 1974 81 WP MM NOT_NAMED 1974-08-20 00:00:00 TS 28.2000 141.600 main 761 719 __O___________ -1 28.2000 141.600 1 23 1000 8 341
1974231N25142 1974 81 WP MM NOT_NAMED 1974-08-20 03:00:00 TS 28.6273 141.567 main 719 668 __P___________ -1 28.6273 141.567 1 23 999 9 5
1974231N25142 1974 81 WP MM NOT_NAMED 1974-08-20 06:00:00 TS 29.1000 141.700 main 668 620 __O___________ -1 29.1000 141.700 1 23 998 10 16
1974231N25142 1974 81 WP MM NOT_NAMED 1974-08-20 09:00:00 TS 29.6224 141.897 main 620 576 __P___________ -1 29.6224 141.897 1 26 996 11 24
1974231N25142 1974 81 WP MM NOT_NAMED 1974-08-20 12:00:00 TS 30.1000 142.200 main 576 557 __O___________ -1 30.1000 142.200 1 29 995 10 35
1974231N25142 1974 81 WP MM NOT_NAMED 1974-08-20 15:00:00 TS 30.4450 142.570 main 561 545 __P___________ -1 30.4450 142.570 1 29 995 9 49
1974231N25142 1974 81 WP MM NOT_NAMED 1974-08-20 18:00:00 TS 30.7000 143.000 main 550 545 __O___________ -1 30.7000 143.000 1 29 995 9 58
1974231N25142 1974 81 WP MM NOT_NAMED 1974-08-20 21:00:00 TS 30.8997 143.421 main 552 549 __P___________ -1 30.8997 143.421 1 29 995 9 63
1974231N25142 1974 81 WP MM NOT_NAMED 1974-08-21 00:00:00 TS 31.1000 143.900 main 560 557 __O___________ -1 31.1000 143.900 1 29 995 10 61
1974231N25142 1974 81 WP MM NOT_NAMED 1974-08-21 03:00:00 TS 31.3768 144.433 main 563 563 __P___________ -1 31.3768 144.433 1 29 993 12 60
1974231N25142 1974 81 WP MM NOT_NAMED 1974-08-21 06:00:00 TS 31.7000 145.100 main 584 583 __O___________ -1 31.7000 145.100 1 29 991 15 64
1974231N25142 1974 81 WP MM NOT_NAMED 1974-08-21 09:00:00 TS 32.0130 145.971 main 625 624 __P___________ -1 32.0130 145.971 1 33 991 17 65
1974231N25142 1974 81 WP MM NOT_NAMED 1974-08-21 12:00:00 TS 32.4000 146.900 main 662 662 __O___________ -1 32.4000 146.900 2 38 991 17 59
1974231N25142 1974 81 WP MM NOT_NAMED 1974-08-21 15:00:00 TS 32.9120 147.730 main 696 696 __P___________ -1 32.9120 147.730 2 38 991 17 51
1974231N25142 1974 81 WP MM NOT_NAMED 1974-08-21 18:00:00 TS 33.5000 148.500 main 735 735 __O___________ -1 33.5000 148.500 2 38 991 17 46
1974231N25142 1974 81 WP MM NOT_NAMED 1974-08-21 21:00:00 TS 34.0991 149.201 main 775 775 __P___________ -1 34.0991 149.201 2 33 994 17 44
1974231N25142 1974 81 WP MM NOT_NAMED 1974-08-22 00:00:00 TS 34.7000 149.900 main 823 823 __O___________ -1 34.7000 149.900 1 29 997 16 46
1974231N25142 1974 81 WP MM NOT_NAMED 1974-08-22 03:00:00 TS 35.2340 150.650 main 887 882 __P___________ -1 35.2340 150.650 1 29 997 17 50
1974231N25142 1974 81 WP MM NOT_NAMED 1974-08-22 06:00:00 TS 35.8000 151.500 main 921 921 __O___________ -1 35.8000 151.500 1 29 998 19 50
1974231N25142 1974 81 WP MM NOT_NAMED 1974-08-22 09:00:00 TS 36.4760 152.462 main 953 949 __P___________ -1 36.4760 152.462 1 29 998 22 50
1974231N25142 1974 81 WP MM NOT_NAMED 1974-08-22 12:00:00 TS 37.2000 153.600 main 956 954 __O___________ -1 37.2000 153.600 1 29 998 24 53
1974231N25142 1974 81 WP MM NOT_NAMED 1974-08-22 15:00:00 TS 37.9128 154.890 main 957 943 __P___________ -1 37.9128 154.890 1 29 1000 26 58
1974231N25142 1974 81 WP MM NOT_NAMED 1974-08-22 18:00:00 TS 38.6000 156.400 main 952 952 __O___________ -1 38.6000 156.400 1 29 1002 29 63
1974231N25142 1974 81 WP MM NOT_NAMED 1974-08-22 21:00:00 TS 39.2267 158.131 main 987 983 __P___________ -1 39.2267 158.131 1 24 1003 30 67
1974231N25142 1974 81 WP MM NOT_NAMED 1974-08-23 00:00:00 TS 39.8000 160.000 main 1045 __O___________ -1 39.8000 160.000 0 19 1005 31 68

デジタル台風データ・検索

IBTrACS Databaseについて

本データベースは、米国NOAAが公開する1842年以降の世界の熱帯低気圧のベストトラックデータアーカイブInternational Best Track Archive for Climate Stewardship (IBTrACS)を、ウェブで閲覧しやすい形式に変換したものです。

最終更新日:2021-10-08